sensor_id;sensor_type;location;lat;lon;timestamp;P1;P2;P0
54869;PMS5003;40756;-37.950;145.008;2023-06-26T00:02:29;14;13;
54869;PMS5003;40756;-37.950;145.008;2023-06-26T00:04:59;30;28;
54869;PMS5003;40756;-37.950;145.008;2023-06-26T00:07:29;9;7;
54869;PMS5003;40756;-37.950;145.008;2023-06-26T00:10:00;6;6;
54869;PMS5003;40756;-37.950;145.008;2023-06-26T00:12:30;3;1;
54869;PMS5003;40756;-37.950;145.008;2023-06-26T00:14:59;0;0;
54869;PMS5003;40756;-37.950;145.008;2023-06-26T00:17:29;2;1;
54869;PMS5003;40756;-37.950;145.008;2023-06-26T00:19:58;2;1;
54869;PMS5003;40756;-37.950;145.008;2023-06-26T00:22:28;3;2;
54869;PMS5003;40756;-37.950;145.008;2023-06-26T00:24:58;2;0;
54869;PMS5003;40756;-37.950;145.008;2023-06-26T00:27:28;3;1;
54869;PMS5003;40756;-37.950;145.008;2023-06-26T00:29:57;4;4;
54869;PMS5003;40756;-37.950;145.008;2023-06-26T00:32:27;6;4;
54869;PMS5003;40756;-37.950;145.008;2023-06-26T00:34:57;2;1;
54869;PMS5003;40756;-37.950;145.008;2023-06-26T00:37:26;1;0;
54869;PMS5003;40756;-37.950;145.008;2023-06-26T00:39:56;1;0;
54869;PMS5003;40756;-37.950;145.008;2023-06-26T00:42:26;1;1;
54869;PMS5003;40756;-37.950;145.008;2023-06-26T00:44:56;1;1;
54869;PMS5003;40756;-37.950;145.008;2023-06-26T00:47:26;13;12;
54869;PMS5003;40756;-37.950;145.008;2023-06-26T00:49:56;0;0;
54869;PMS5003;40756;-37.950;145.008;2023-06-26T00:52:26;1;1;
54869;PMS5003;40756;-37.950;145.008;2023-06-26T00:54:55;0;0;
54869;PMS5003;40756;-37.950;145.008;2023-06-26T00:57:25;2;1;
54869;PMS5003;40756;-37.950;145.008;2023-06-26T00:59:55;2;1;
54869;PMS5003;40756;-37.950;145.008;2023-06-26T01:02:24;2;0;
54869;PMS5003;40756;-37.950;145.008;2023-06-26T01:04:54;2;1;
54869;PMS5003;40756;-37.950;145.008;2023-06-26T01:07:24;1;1;
54869;PMS5003;40756;-37.950;145.008;2023-06-26T01:09:54;3;2;
54869;PMS5003;40756;-37.950;145.008;2023-06-26T01:12:24;2;0;
54869;PMS5003;40756;-37.950;145.008;2023-06-26T01:14:54;1;1;
54869;PMS5003;40756;-37.950;145.008;2023-06-26T01:17:23;0;0;
54869;PMS5003;40756;-37.950;145.008;2023-06-26T01:19:54;3;2;
54869;PMS5003;40756;-37.950;145.008;2023-06-26T01:22:30;2;2;
54869;PMS5003;40756;-37.950;145.008;2023-06-26T01:25:10;7;6;
54869;PMS5003;40756;-37.950;145.008;2023-06-26T01:27:46;2;2;
54869;PMS5003;40756;-37.950;145.008;2023-06-26T01:30:17;3;3;
54869;PMS5003;40756;-37.950;145.008;2023-06-26T01:32:49;4;3;
54869;PMS5003;40756;-37.950;145.008;2023-06-26T01:35:18;5;4;
54869;PMS5003;40756;-37.950;145.008;2023-06-26T01:37:48;2;1;
54869;PMS5003;40756;-37.950;145.008;2023-06-26T01:40:18;8;7;
54869;PMS5003;40756;-37.950;145.008;2023-06-26T01:42:47;2;2;
54869;PMS5003;40756;-37.950;145.008;2023-06-26T01:45:19;6;6;
54869;PMS5003;40756;-37.950;145.008;2023-06-26T01:47:54;2;2;
54869;PMS5003;40756;-37.950;145.008;2023-06-26T01:50:29;5;4;
54869;PMS5003;40756;-37.950;145.008;2023-06-26T01:53:02;4;2;
54869;PMS5003;40756;-37.950;145.008;2023-06-26T01:55:40;2;2;
54869;PMS5003;40756;-37.950;145.008;2023-06-26T01:58:14;3;3;
54869;PMS5003;40756;-37.950;145.008;2023-06-26T02:00:44;2;1;
54869;PMS5003;40756;-37.950;145.008;2023-06-26T02:03:14;2;2;
54869;PMS5003;40756;-37.950;145.008;2023-06-26T02:05:44;2;2;
54869;PMS5003;40756;-37.950;145.008;2023-06-26T02:08:14;1;1;
54869;PMS5003;40756;-37.950;145.008;2023-06-26T02:10:44;2;2;
54869;PMS5003;40756;-37.950;145.008;2023-06-26T02:13:14;4;3;
54869;PMS5003;40756;-37.950;145.008;2023-06-26T02:15:44;2;1;
54869;PMS5003;40756;-37.950;145.008;2023-06-26T02:18:13;1;1;
54869;PMS5003;40756;-37.950;145.008;2023-06-26T02:20:43;2;2;
54869;PMS5003;40756;-37.950;145.008;2023-06-26T02:23:12;3;2;
54869;PMS5003;40756;-37.950;145.008;2023-06-26T02:25:42;5;5;
54869;PMS5003;40756;-37.950;145.008;2023-06-26T02:28:11;4;2;
54869;PMS5003;40756;-37.950;145.008;2023-06-26T02:30:41;2;2;
54869;PMS5003;40756;-37.950;145.008;2023-06-26T02:33:10;4;2;
54869;PMS5003;40756;-37.950;145.008;2023-06-26T02:35:40;5;2;
54869;PMS5003;40756;-37.950;145.008;2023-06-26T02:38:10;1;1;
54869;PMS5003;40756;-37.950;145.008;2023-06-26T02:40:39;2;2;
54869;PMS5003;40756;-37.950;145.008;2023-06-26T02:43:09;1;1;
54869;PMS5003;40756;-37.950;145.008;2023-06-26T02:45:38;3;2;
54869;PMS5003;40756;-37.950;145.008;2023-06-26T02:48:08;2;1;
54869;PMS5003;40756;-37.950;145.008;2023-06-26T02:50:38;1;1;
54869;PMS5003;40756;-37.950;145.008;2023-06-26T02:53:08;2;1;
54869;PMS5003;40756;-37.950;145.008;2023-06-26T02:55:37;3;3;
54869;PMS5003;40756;-37.950;145.008;2023-06-26T02:58:06;6;3;
54869;PMS5003;40756;-37.950;145.008;2023-06-26T03:00:36;5;3;
54869;PMS5003;40756;-37.950;145.008;2023-06-26T03:03:05;3;2;
54869;PMS5003;40756;-37.950;145.008;2023-06-26T03:05:35;1;1;
54869;PMS5003;40756;-37.950;145.008;2023-06-26T03:08:05;6;5;
54869;PMS5003;40756;-37.950;145.008;2023-06-26T03:10:34;1;1;
54869;PMS5003;40756;-37.950;145.008;2023-06-26T03:13:04;3;1;
54869;PMS5003;40756;-37.950;145.008;2023-06-26T03:15:34;6;3;
54869;PMS5003;40756;-37.950;145.008;2023-06-26T03:18:04;3;3;
54869;PMS5003;40756;-37.950;145.008;2023-06-26T03:20:34;3;3;
54869;PMS5003;40756;-37.950;145.008;2023-06-26T03:23:03;3;2;
54869;PMS5003;40756;-37.950;145.008;2023-06-26T03:25:33;5;4;
54869;PMS5003;40756;-37.950;145.008;2023-06-26T03:28:02;3;2;
54869;PMS5003;40756;-37.950;145.008;2023-06-26T03:30:32;3;1;
54869;PMS5003;40756;-37.950;145.008;2023-06-26T03:33:01;2;2;
54869;PMS5003;40756;-37.950;145.008;2023-06-26T03:35:31;2;2;
54869;PMS5003;40756;-37.950;145.008;2023-06-26T03:38:01;2;2;
54869;PMS5003;40756;-37.950;145.008;2023-06-26T03:40:31;2;1;
54869;PMS5003;40756;-37.950;145.008;2023-06-26T03:43:01;5;4;
54869;PMS5003;40756;-37.950;145.008;2023-06-26T03:45:30;3;3;
54869;PMS5003;40756;-37.950;145.008;2023-06-26T03:48:00;4;4;
54869;PMS5003;40756;-37.950;145.008;2023-06-26T03:50:30;3;3;
54869;PMS5003;40756;-37.950;145.008;2023-06-26T03:52:59;4;4;
54869;PMS5003;40756;-37.950;145.008;2023-06-26T03:55:29;4;3;
54869;PMS5003;40756;-37.950;145.008;2023-06-26T03:57:59;7;5;
54869;PMS5003;40756;-37.950;145.008;2023-06-26T04:00:28;2;1;
54869;PMS5003;40756;-37.950;145.008;2023-06-26T04:02:58;2;2;
54869;PMS5003;40756;-37.950;145.008;2023-06-26T04:05:28;2;1;
54869;PMS5003;40756;-37.950;145.008;2023-06-26T04:07:57;3;3;
54869;PMS5003;40756;-37.950;145.008;2023-06-26T04:10:27;2;2;
54869;PMS5003;40756;-37.950;145.008;2023-06-26T04:12:57;4;3;
54869;PMS5003;40756;-37.950;145.008;2023-06-26T04:15:26;3;2;
54869;PMS5003;40756;-37.950;145.008;2023-06-26T04:17:56;1;1;
54869;PMS5003;40756;-37.950;145.008;2023-06-26T04:20:26;5;4;
54869;PMS5003;40756;-37.950;145.008;2023-06-26T04:22:55;1;1;
54869;PMS5003;40756;-37.950;145.008;2023-06-26T04:25:25;1;1;
54869;PMS5003;40756;-37.950;145.008;2023-06-26T04:27:55;3;2;
54869;PMS5003;40756;-37.950;145.008;2023-06-26T04:30:24;1;1;
54869;PMS5003;40756;-37.950;145.008;2023-06-26T04:32:54;2;2;
54869;PMS5003;40756;-37.950;145.008;2023-06-26T04:35:23;3;3;
54869;PMS5003;40756;-37.950;145.008;2023-06-26T04:37:53;3;1;
54869;PMS5003;40756;-37.950;145.008;2023-06-26T04:40:23;5;4;
54869;PMS5003;40756;-37.950;145.008;2023-06-26T04:42:52;1;1;
54869;PMS5003;40756;-37.950;145.008;2023-06-26T04:45:21;2;1;
54869;PMS5003;40756;-37.950;145.008;2023-06-26T04:47:51;2;2;
54869;PMS5003;40756;-37.950;145.008;2023-06-26T04:50:21;0;0;
54869;PMS5003;40756;-37.950;145.008;2023-06-26T04:52:50;32;27;
54869;PMS5003;40756;-37.950;145.008;2023-06-26T04:55:20;2;1;
54869;PMS5003;40756;-37.950;145.008;2023-06-26T04:55:24;2;1;
54869;PMS5003;40756;-37.950;145.008;2023-06-26T04:57:53;2;1;
54869;PMS5003;40756;-37.950;145.008;2023-06-26T05:00:23;2;2;
54869;PMS5003;40756;-37.950;145.008;2023-06-26T05:02:53;1;1;
54869;PMS5003;40756;-37.950;145.008;2023-06-26T05:05:22;1;1;
54869;PMS5003;40756;-37.950;145.008;2023-06-26T05:07:53;0;0;
54869;PMS5003;40756;-37.950;145.008;2023-06-26T05:10:23;2;1;
54869;PMS5003;40756;-37.950;145.008;2023-06-26T05:12:53;1;1;
54869;PMS5003;40756;-37.950;145.008;2023-06-26T05:15:23;0;0;
54869;PMS5003;40756;-37.950;145.008;2023-06-26T05:17:53;0;0;
54869;PMS5003;40756;-37.950;145.008;2023-06-26T05:20:24;2;1;
54869;PMS5003;40756;-37.950;145.008;2023-06-26T05:22:54;1;0;
54869;PMS5003;40756;-37.950;145.008;2023-06-26T05:25:25;1;0;
54869;PMS5003;40756;-37.950;145.008;2023-06-26T05:27:56;2;1;
54869;PMS5003;40756;-37.950;145.008;2023-06-26T05:30:27;3;2;
54869;PMS5003;40756;-37.950;145.008;2023-06-26T05:32:57;0;0;
54869;PMS5003;40756;-37.950;145.008;2023-06-26T05:35:29;2;1;
54869;PMS5003;40756;-37.950;145.008;2023-06-26T05:38:00;1;1;
54869;PMS5003;40756;-37.950;145.008;2023-06-26T05:40:32;2;1;
54869;PMS5003;40756;-37.950;145.008;2023-06-26T05:43:03;1;1;
54869;PMS5003;40756;-37.950;145.008;2023-06-26T05:45:33;0;0;
54869;PMS5003;40756;-37.950;145.008;2023-06-26T05:48:03;1;0;
54869;PMS5003;40756;-37.950;145.008;2023-06-26T05:50:32;0;0;
54869;PMS5003;40756;-37.950;145.008;2023-06-26T05:53:03;1;0;
54869;PMS5003;40756;-37.950;145.008;2023-06-26T05:55:32;1;1;
54869;PMS5003;40756;-37.950;145.008;2023-06-26T05:58:02;1;1;
54869;PMS5003;40756;-37.950;145.008;2023-06-26T06:00:32;0;0;
54869;PMS5003;40756;-37.950;145.008;2023-06-26T06:03:03;1;1;
54869;PMS5003;40756;-37.950;145.008;2023-06-26T06:05:32;2;2;
54869;PMS5003;40756;-37.950;145.008;2023-06-26T06:08:02;2;2;
54869;PMS5003;40756;-37.950;145.008;2023-06-26T06:10:31;1;1;
54869;PMS5003;40756;-37.950;145.008;2023-06-26T06:13:01;3;3;
54869;PMS5003;40756;-37.950;145.008;2023-06-26T06:15:31;3;3;
54869;PMS5003;40756;-37.950;145.008;2023-06-26T06:18:00;5;5;
54869;PMS5003;40756;-37.950;145.008;2023-06-26T06:20:31;5;3;
54869;PMS5003;40756;-37.950;145.008;2023-06-26T06:23:01;3;2;
54869;PMS5003;40756;-37.950;145.008;2023-06-26T06:25:30;2;2;
54869;PMS5003;40756;-37.950;145.008;2023-06-26T06:28:00;1;0;
54869;PMS5003;40756;-37.950;145.008;2023-06-26T06:30:30;2;2;
54869;PMS5003;40756;-37.950;145.008;2023-06-26T06:32:59;2;2;
54869;PMS5003;40756;-37.950;145.008;2023-06-26T06:35:29;2;1;
54869;PMS5003;40756;-37.950;145.008;2023-06-26T06:37:59;2;1;
54869;PMS5003;40756;-37.950;145.008;2023-06-26T06:40:28;5;4;
54869;PMS5003;40756;-37.950;145.008;2023-06-26T06:42:58;7;6;
54869;PMS5003;40756;-37.950;145.008;2023-06-26T06:45:28;6;6;
54869;PMS5003;40756;-37.950;145.008;2023-06-26T06:47:57;13;13;
54869;PMS5003;40756;-37.950;145.008;2023-06-26T06:50:27;25;25;
54869;PMS5003;40756;-37.950;145.008;2023-06-26T06:52:57;30;30;
54869;PMS5003;40756;-37.950;145.008;2023-06-26T06:55:27;27;27;
54869;PMS5003;40756;-37.950;145.008;2023-06-26T06:57:57;20;20;
54869;PMS5003;40756;-37.950;145.008;2023-06-26T07:00:27;36;36;
54869;PMS5003;40756;-37.950;145.008;2023-06-26T07:02:57;39;39;
54869;PMS5003;40756;-37.950;145.008;2023-06-26T07:05:26;8;8;
54869;PMS5003;40756;-37.950;145.008;2023-06-26T07:07:56;11;11;
54869;PMS5003;40756;-37.950;145.008;2023-06-26T07:10:26;21;19;
54869;PMS5003;40756;-37.950;145.008;2023-06-26T07:12:56;22;21;
54869;PMS5003;40756;-37.950;145.008;2023-06-26T07:15:25;4;4;
54869;PMS5003;40756;-37.950;145.008;2023-06-26T07:17:55;3;3;
54869;PMS5003;40756;-37.950;145.008;2023-06-26T07:20:25;2;2;
54869;PMS5003;40756;-37.950;145.008;2023-06-26T07:22:55;10;8;
54869;PMS5003;40756;-37.950;145.008;2023-06-26T07:25:24;17;17;
54869;PMS5003;40756;-37.950;145.008;2023-06-26T07:27:54;19;19;
54869;PMS5003;40756;-37.950;145.008;2023-06-26T07:30:24;4;4;
54869;PMS5003;40756;-37.950;145.008;2023-06-26T07:32:53;3;3;
54869;PMS5003;40756;-37.950;145.008;2023-06-26T07:35:23;2;2;
54869;PMS5003;40756;-37.950;145.008;2023-06-26T07:37:53;1;0;
54869;PMS5003;40756;-37.950;145.008;2023-06-26T07:40:22;1;1;
54869;PMS5003;40756;-37.950;145.008;2023-06-26T07:42:51;3;3;
54869;PMS5003;40756;-37.950;145.008;2023-06-26T07:45:21;1;0;
54869;PMS5003;40756;-37.950;145.008;2023-06-26T07:47:50;2;2;
54869;PMS5003;40756;-37.950;145.008;2023-06-26T07:50:20;2;2;
54869;PMS5003;40756;-37.950;145.008;2023-06-26T07:52:50;1;1;
54869;PMS5003;40756;-37.950;145.008;2023-06-26T07:55:19;1;1;
54869;PMS5003;40756;-37.950;145.008;2023-06-26T07:57:49;0;0;
54869;PMS5003;40756;-37.950;145.008;2023-06-26T08:00:19;1;1;
54869;PMS5003;40756;-37.950;145.008;2023-06-26T08:02:48;2;2;
54869;PMS5003;40756;-37.950;145.008;2023-06-26T08:05:18;0;0;
54869;PMS5003;40756;-37.950;145.008;2023-06-26T08:07:48;0;0;
54869;PMS5003;40756;-37.950;145.008;2023-06-26T08:10:17;2;2;
54869;PMS5003;40756;-37.950;145.008;2023-06-26T08:12:47;5;5;
54869;PMS5003;40756;-37.950;145.008;2023-06-26T08:15:17;16;16;
54869;PMS5003;40756;-37.950;145.008;2023-06-26T08:17:47;13;13;
54869;PMS5003;40756;-37.950;145.008;2023-06-26T08:20:16;10;10;
54869;PMS5003;40756;-37.950;145.008;2023-06-26T08:22:46;7;5;
54869;PMS5003;40756;-37.950;145.008;2023-06-26T08:25:17;0;0;
54869;PMS5003;40756;-37.950;145.008;2023-06-26T08:27:46;2;1;
54869;PMS5003;40756;-37.950;145.008;2023-06-26T08:30:16;4;4;
54869;PMS5003;40756;-37.950;145.008;2023-06-26T08:32:46;2;2;
54869;PMS5003;40756;-37.950;145.008;2023-06-26T08:35:16;1;0;
54869;PMS5003;40756;-37.950;145.008;2023-06-26T08:37:45;2;2;
54869;PMS5003;40756;-37.950;145.008;2023-06-26T08:40:16;1;1;
54869;PMS5003;40756;-37.950;145.008;2023-06-26T08:42:46;3;2;
54869;PMS5003;40756;-37.950;145.008;2023-06-26T08:45:16;2;1;
54869;PMS5003;40756;-37.950;145.008;2023-06-26T08:47:46;1;0;
54869;PMS5003;40756;-37.950;145.008;2023-06-26T08:50:21;7;7;
54869;PMS5003;40756;-37.950;145.008;2023-06-26T08:52:58;4;4;
54869;PMS5003;40756;-37.950;145.008;2023-06-26T08:55:32;1;1;
54869;PMS5003;40756;-37.950;145.008;2023-06-26T08:58:06;0;0;
54869;PMS5003;40756;-37.950;145.008;2023-06-26T09:00:35;1;1;
54869;PMS5003;40756;-37.950;145.008;2023-06-26T09:03:05;2;1;
54869;PMS5003;40756;-37.950;145.008;2023-06-26T09:05:35;1;1;
54869;PMS5003;40756;-37.950;145.008;2023-06-26T09:08:05;2;1;
54869;PMS5003;40756;-37.950;145.008;2023-06-26T09:10:35;0;0;
54869;PMS5003;40756;-37.950;145.008;2023-06-26T09:13:04;3;1;
54869;PMS5003;40756;-37.950;145.008;2023-06-26T09:15:37;2;2;
54869;PMS5003;40756;-37.950;145.008;2023-06-26T09:18:09;0;0;
54869;PMS5003;40756;-37.950;145.008;2023-06-26T09:20:38;1;1;
54869;PMS5003;40756;-37.950;145.008;2023-06-26T09:23:08;0;0;
54869;PMS5003;40756;-37.950;145.008;2023-06-26T09:25:39;1;1;
54869;PMS5003;40756;-37.950;145.008;2023-06-26T09:28:09;0;0;
54869;PMS5003;40756;-37.950;145.008;2023-06-26T09:30:39;0;0;
54869;PMS5003;40756;-37.950;145.008;2023-06-26T09:33:16;1;1;
54869;PMS5003;40756;-37.950;145.008;2023-06-26T09:35:47;0;0;
54869;PMS5003;40756;-37.950;145.008;2023-06-26T09:38:17;2;2;
54869;PMS5003;40756;-37.950;145.008;2023-06-26T09:40:46;1;0;
54869;PMS5003;40756;-37.950;145.008;2023-06-26T09:43:16;1;1;
54869;PMS5003;40756;-37.950;145.008;2023-06-26T09:45:46;3;2;
54869;PMS5003;40756;-37.950;145.008;2023-06-26T09:48:15;2;2;
54869;PMS5003;40756;-37.950;145.008;2023-06-26T09:50:46;3;2;
54869;PMS5003;40756;-37.950;145.008;2023-06-26T09:53:15;2;1;
54869;PMS5003;40756;-37.950;145.008;2023-06-26T09:55:45;1;1;
54869;PMS5003;40756;-37.950;145.008;2023-06-26T09:58:15;1;1;
54869;PMS5003;40756;-37.950;145.008;2023-06-26T10:00:45;2;2;
54869;PMS5003;40756;-37.950;145.008;2023-06-26T10:03:15;2;2;
54869;PMS5003;40756;-37.950;145.008;2023-06-26T10:05:45;5;5;
54869;PMS5003;40756;-37.950;145.008;2023-06-26T10:08:16;9;9;
54869;PMS5003;40756;-37.950;145.008;2023-06-26T10:10:47;11;11;
54869;PMS5003;40756;-37.950;145.008;2023-06-26T10:13:18;10;9;
54869;PMS5003;40756;-37.950;145.008;2023-06-26T10:15:55;9;9;
54869;PMS5003;40756;-37.950;145.008;2023-06-26T10:18:26;10;10;
54869;PMS5003;40756;-37.950;145.008;2023-06-26T10:20:58;9;9;
54869;PMS5003;40756;-37.950;145.008;2023-06-26T10:23:29;13;13;
54869;PMS5003;40756;-37.950;145.008;2023-06-26T10:26:02;20;20;
54869;PMS5003;40756;-37.950;145.008;2023-06-26T10:28:34;24;24;
54869;PMS5003;40756;-37.950;145.008;2023-06-26T10:31:05;21;21;
54869;PMS5003;40756;-37.950;145.008;2023-06-26T10:33:36;21;20;
54869;PMS5003;40756;-37.950;145.008;2023-06-26T10:36:14;16;15;
54869;PMS5003;40756;-37.950;145.008;2023-06-26T10:38:49;15;15;
54869;PMS5003;40756;-37.950;145.008;2023-06-26T10:41:22;16;15;
54869;PMS5003;40756;-37.950;145.008;2023-06-26T10:43:57;19;18;
54869;PMS5003;40756;-37.950;145.008;2023-06-26T10:46:52;13;13;
54869;PMS5003;40756;-37.950;145.008;2023-06-26T10:49:34;17;17;
54869;PMS5003;40756;-37.950;145.008;2023-06-26T10:52:05;25;25;
54869;PMS5003;40756;-37.950;145.008;2023-06-26T10:54:35;27;26;
54869;PMS5003;40756;-37.950;145.008;2023-06-26T10:57:09;25;25;
54869;PMS5003;40756;-37.950;145.008;2023-06-26T11:00:09;24;24;
54869;PMS5003;40756;-37.950;145.008;2023-06-26T11:02:50;10;10;
54869;PMS5003;40756;-37.950;145.008;2023-06-26T11:05:26;22;22;
54869;PMS5003;40756;-37.950;145.008;2023-06-26T11:08:05;25;25;
54869;PMS5003;40756;-37.950;145.008;2023-06-26T11:10:53;26;26;
54869;PMS5003;40756;-37.950;145.008;2023-06-26T11:13:27;23;23;
54869;PMS5003;40756;-37.950;145.008;2023-06-26T11:15:57;23;23;
54869;PMS5003;40756;-37.950;145.008;2023-06-26T11:18:29;22;21;
54869;PMS5003;40756;-37.950;145.008;2023-06-26T11:21:04;14;13;
54869;PMS5003;40756;-37.950;145.008;2023-06-26T11:23:35;19;19;
54869;PMS5003;40756;-37.950;145.008;2023-06-26T11:26:14;22;21;
54869;PMS5003;40756;-37.950;145.008;2023-06-26T11:28:48;18;17;
54869;PMS5003;40756;-37.950;145.008;2023-06-26T11:31:27;24;23;
54869;PMS5003;40756;-37.950;145.008;2023-06-26T11:33:57;18;18;
54869;PMS5003;40756;-37.950;145.008;2023-06-26T11:36:28;21;20;
54869;PMS5003;40756;-37.950;145.008;2023-06-26T11:38:59;14;13;
54869;PMS5003;40756;-37.950;145.008;2023-06-26T11:41:31;16;16;
54869;PMS5003;40756;-37.950;145.008;2023-06-26T11:44:02;20;18;
54869;PMS5003;40756;-37.950;145.008;2023-06-26T11:46:34;21;19;
54869;PMS5003;40756;-37.950;145.008;2023-06-26T11:49:05;53;53;
54869;PMS5003;40756;-37.950;145.008;2023-06-26T11:51:35;28;28;
54869;PMS5003;40756;-37.950;145.008;2023-06-26T11:54:05;15;14;
54869;PMS5003;40756;-37.950;145.008;2023-06-26T11:56:34;9;8;
54869;PMS5003;40756;-37.950;145.008;2023-06-26T11:59:05;12;11;
54869;PMS5003;40756;-37.950;145.008;2023-06-26T12:01:37;8;8;
54869;PMS5003;40756;-37.950;145.008;2023-06-26T12:04:09;8;8;
54869;PMS5003;40756;-37.950;145.008;2023-06-26T12:06:42;13;12;
54869;PMS5003;40756;-37.950;145.008;2023-06-26T12:09:14;4;4;
54869;PMS5003;40756;-37.950;145.008;2023-06-26T12:11:46;5;4;
54869;PMS5003;40756;-37.950;145.008;2023-06-26T12:14:20;4;4;
54869;PMS5003;40756;-37.950;145.008;2023-06-26T12:16:51;4;4;
54869;PMS5003;40756;-37.950;145.008;2023-06-26T12:19:25;4;4;
54869;PMS5003;40756;-37.950;145.008;2023-06-26T12:21:55;4;4;
54869;PMS5003;40756;-37.950;145.008;2023-06-26T12:24:24;13;12;
54869;PMS5003;40756;-37.950;145.008;2023-06-26T12:26:55;21;21;
54869;PMS5003;40756;-37.950;145.008;2023-06-26T12:29:30;18;17;
54869;PMS5003;40756;-37.950;145.008;2023-06-26T12:32:01;11;11;
54869;PMS5003;40756;-37.950;145.008;2023-06-26T12:34:32;21;21;
54869;PMS5003;40756;-37.950;145.008;2023-06-26T12:37:06;21;21;
54869;PMS5003;40756;-37.950;145.008;2023-06-26T12:39:48;18;15;
54869;PMS5003;40756;-37.950;145.008;2023-06-26T12:42:19;18;18;
54869;PMS5003;40756;-37.950;145.008;2023-06-26T12:44:50;17;16;
54869;PMS5003;40756;-37.950;145.008;2023-06-26T12:47:23;23;21;
54869;PMS5003;40756;-37.950;145.008;2023-06-26T12:49:54;22;21;
54869;PMS5003;40756;-37.950;145.008;2023-06-26T12:52:23;17;16;
54869;PMS5003;40756;-37.950;145.008;2023-06-26T12:54:53;10;10;
54869;PMS5003;40756;-37.950;145.008;2023-06-26T12:57:24;11;9;
54869;PMS5003;40756;-37.950;145.008;2023-06-26T12:59:53;20;19;
54869;PMS5003;40756;-37.950;145.008;2023-06-26T13:02:23;23;23;
54869;PMS5003;40756;-37.950;145.008;2023-06-26T13:04:52;19;19;
54869;PMS5003;40756;-37.950;145.008;2023-06-26T13:07:22;23;22;
54869;PMS5003;40756;-37.950;145.008;2023-06-26T13:09:52;20;19;
54869;PMS5003;40756;-37.950;145.008;2023-06-26T13:12:21;21;21;
54869;PMS5003;40756;-37.950;145.008;2023-06-26T13:14:51;31;31;
54869;PMS5003;40756;-37.950;145.008;2023-06-26T13:17:21;37;34;
54869;PMS5003;40756;-37.950;145.008;2023-06-26T13:19:50;33;32;
54869;PMS5003;40756;-37.950;145.008;2023-06-26T13:22:20;31;29;
54869;PMS5003;40756;-37.950;145.008;2023-06-26T13:24:49;18;16;
54869;PMS5003;40756;-37.950;145.008;2023-06-26T13:27:19;18;16;
54869;PMS5003;40756;-37.950;145.008;2023-06-26T13:29:48;22;20;
54869;PMS5003;40756;-37.950;145.008;2023-06-26T13:32:18;20;19;
54869;PMS5003;40756;-37.950;145.008;2023-06-26T13:34:47;17;17;
54869;PMS5003;40756;-37.950;145.008;2023-06-26T13:37:17;24;22;
54869;PMS5003;40756;-37.950;145.008;2023-06-26T13:39:46;24;21;
54869;PMS5003;40756;-37.950;145.008;2023-06-26T13:42:15;21;17;
54869;PMS5003;40756;-37.950;145.008;2023-06-26T13:44:45;23;21;
54869;PMS5003;40756;-37.950;145.008;2023-06-26T13:47:15;10;9;
54869;PMS5003;40756;-37.950;145.008;2023-06-26T13:49:45;8;8;
54869;PMS5003;40756;-37.950;145.008;2023-06-26T13:52:15;7;7;
54869;PMS5003;40756;-37.950;145.008;2023-06-26T13:54:45;6;6;
54869;PMS5003;40756;-37.950;145.008;2023-06-26T13:57:15;10;8;
54869;PMS5003;40756;-37.950;145.008;2023-06-26T13:59:45;7;7;
54869;PMS5003;40756;-37.950;145.008;2023-06-26T14:02:14;9;8;
54869;PMS5003;40756;-37.950;145.008;2023-06-26T14:04:44;11;11;
54869;PMS5003;40756;-37.950;145.008;2023-06-26T14:07:14;11;10;
54869;PMS5003;40756;-37.950;145.008;2023-06-26T14:09:43;8;7;
54869;PMS5003;40756;-37.950;145.008;2023-06-26T14:12:13;6;6;
54869;PMS5003;40756;-37.950;145.008;2023-06-26T14:14:43;6;5;
54869;PMS5003;40756;-37.950;145.008;2023-06-26T14:17:12;8;7;
54869;PMS5003;40756;-37.950;145.008;2023-06-26T14:19:42;8;7;
54869;PMS5003;40756;-37.950;145.008;2023-06-26T14:22:11;5;5;
54869;PMS5003;40756;-37.950;145.008;2023-06-26T14:24:41;6;6;
54869;PMS5003;40756;-37.950;145.008;2023-06-26T14:27:11;7;6;
54869;PMS5003;40756;-37.950;145.008;2023-06-26T14:29:41;6;6;
54869;PMS5003;40756;-37.950;145.008;2023-06-26T14:32:11;7;6;
54869;PMS5003;40756;-37.950;145.008;2023-06-26T14:34:40;5;5;
54869;PMS5003;40756;-37.950;145.008;2023-06-26T14:37:10;10;8;
54869;PMS5003;40756;-37.950;145.008;2023-06-26T14:39:40;14;14;
54869;PMS5003;40756;-37.950;145.008;2023-06-26T14:42:09;19;17;
54869;PMS5003;40756;-37.950;145.008;2023-06-26T14:44:39;26;22;
54869;PMS5003;40756;-37.950;145.008;2023-06-26T14:47:08;29;24;
54869;PMS5003;40756;-37.950;145.008;2023-06-26T14:49:38;24;22;
54869;PMS5003;40756;-37.950;145.008;2023-06-26T14:52:08;13;12;
54869;PMS5003;40756;-37.950;145.008;2023-06-26T14:54:38;17;14;
54869;PMS5003;40756;-37.950;145.008;2023-06-26T14:57:08;21;17;
54869;PMS5003;40756;-37.950;145.008;2023-06-26T14:59:38;16;16;
54869;PMS5003;40756;-37.950;145.008;2023-06-26T15:02:08;22;21;
54869;PMS5003;40756;-37.950;145.008;2023-06-26T15:04:38;23;23;
54869;PMS5003;40756;-37.950;145.008;2023-06-26T15:07:07;22;21;
54869;PMS5003;40756;-37.950;145.008;2023-06-26T15:09:36;16;14;
54869;PMS5003;40756;-37.950;145.008;2023-06-26T15:12:06;11;11;
54869;PMS5003;40756;-37.950;145.008;2023-06-26T15:14:36;12;11;
54869;PMS5003;40756;-37.950;145.008;2023-06-26T15:17:06;9;8;
54869;PMS5003;40756;-37.950;145.008;2023-06-26T15:19:37;9;8;
54869;PMS5003;40756;-37.950;145.008;2023-06-26T15:22:06;11;10;
54869;PMS5003;40756;-37.950;145.008;2023-06-26T15:24:36;9;9;
54869;PMS5003;40756;-37.950;145.008;2023-06-26T15:27:06;7;6;
54869;PMS5003;40756;-37.950;145.008;2023-06-26T15:29:36;9;9;
54869;PMS5003;40756;-37.950;145.008;2023-06-26T15:32:07;8;7;
54869;PMS5003;40756;-37.950;145.008;2023-06-26T15:34:37;9;8;
54869;PMS5003;40756;-37.950;145.008;2023-06-26T15:37:07;8;8;
54869;PMS5003;40756;-37.950;145.008;2023-06-26T15:39:37;9;8;
54869;PMS5003;40756;-37.950;145.008;2023-06-26T15:42:07;7;6;
54869;PMS5003;40756;-37.950;145.008;2023-06-26T15:44:37;6;6;
54869;PMS5003;40756;-37.950;145.008;2023-06-26T15:47:06;8;6;
54869;PMS5003;40756;-37.950;145.008;2023-06-26T15:49:36;4;4;
54869;PMS5003;40756;-37.950;145.008;2023-06-26T15:52:06;5;5;
54869;PMS5003;40756;-37.950;145.008;2023-06-26T15:54:36;5;4;
54869;PMS5003;40756;-37.950;145.008;2023-06-26T15:57:06;5;4;
54869;PMS5003;40756;-37.950;145.008;2023-06-26T15:59:35;4;4;
54869;PMS5003;40756;-37.950;145.008;2023-06-26T16:02:05;5;5;
54869;PMS5003;40756;-37.950;145.008;2023-06-26T16:04:35;3;3;
54869;PMS5003;40756;-37.950;145.008;2023-06-26T16:07:04;6;5;
54869;PMS5003;40756;-37.950;145.008;2023-06-26T16:09:34;7;7;
54869;PMS5003;40756;-37.950;145.008;2023-06-26T16:12:04;4;4;